sensor_id;sensor_type;location;lat;lon;timestamp;pressure;altitude;pressure_sealevel;temperature;humidity
60489;BME280;46331;49.252;8.904;2023-06-24T00:00:31;100598.16;;;16.33;84.49
60489;BME280;46331;49.252;8.904;2023-06-24T00:01:12;100592.75;;;16.27;84.55
60489;BME280;46331;49.252;8.904;2023-06-24T00:01:55;100594.88;;;16.25;84.32
60489;BME280;46331;49.252;8.904;2023-06-24T00:02:35;100598.59;;;16.24;84.75
60489;BME280;46331;49.252;8.904;2023-06-24T00:03:17;100597.25;;;16.22;84.80
60489;BME280;46331;49.252;8.904;2023-06-24T00:03:57;100592.97;;;16.21;85.10
60489;BME280;46331;49.252;8.904;2023-06-24T00:04:38;100590.84;;;16.23;85.05
60489;BME280;46331;49.252;8.904;2023-06-24T00:05:19;100592.16;;;16.20;85.76
60489;BME280;46331;49.252;8.904;2023-06-24T00:05:59;100597.78;;;16.19;85.81
60489;BME280;46331;49.252;8.904;2023-06-24T00:06:43;100586.75;;;16.15;85.90
60489;BME280;46331;49.252;8.904;2023-06-24T00:07:23;100594.53;;;16.17;86.04
60489;BME280;46331;49.252;8.904;2023-06-24T00:08:06;100592.16;;;16.20;85.92
60489;BME280;46331;49.252;8.904;2023-06-24T00:08:48;100591.91;;;16.22;86.20
60489;BME280;46331;49.252;8.904;2023-06-24T00:09:29;100590.84;;;16.23;86.26
60489;BME280;46331;49.252;8.904;2023-06-24T00:10:13;100594.63;;;16.27;85.69
60489;BME280;46331;49.252;8.904;2023-06-24T00:10:54;100590.53;;;16.19;85.99
60489;BME280;46331;49.252;8.904;2023-06-24T00:11:35;100602.09;;;16.25;86.08
60489;BME280;46331;49.252;8.904;2023-06-24T00:12:15;100589.53;;;16.25;86.00
60489;BME280;46331;49.252;8.904;2023-06-24T00:12:59;100595.13;;;16.24;85.89
60489;BME280;46331;49.252;8.904;2023-06-24T00:13:43;100589.78;;;16.24;86.09
60489;BME280;46331;49.252;8.904;2023-06-24T00:14:25;100588.16;;;16.23;86.05
60489;BME280;46331;49.252;8.904;2023-06-24T00:15:09;100583.38;;;16.25;85.65
60489;BME280;46331;49.252;8.904;2023-06-24T00:15:50;100591.66;;;16.23;85.26
60489;BME280;46331;49.252;8.904;2023-06-24T00:16:30;100590.78;;;16.18;85.36
60489;BME280;46331;49.252;8.904;2023-06-24T00:17:11;100593.22;;;16.19;85.38
60489;BME280;46331;49.252;8.904;2023-06-24T00:17:52;100588.38;;;16.16;85.09
60489;BME280;46331;49.252;8.904;2023-06-24T00:18:33;100591.56;;;16.13;85.35
60489;BME280;46331;49.252;8.904;2023-06-24T00:19:13;100591.00;;;16.11;85.46
60489;BME280;46331;49.252;8.904;2023-06-24T00:19:54;100585.06;;;16.09;85.70
60489;BME280;46331;49.252;8.904;2023-06-24T00:20:35;100592.56;;;16.07;85.90
60489;BME280;46331;49.252;8.904;2023-06-24T00:21:15;100588.00;;;16.07;85.81
60489;BME280;46331;49.252;8.904;2023-06-24T00:21:57;100594.97;;;16.08;85.64
60489;BME280;46331;49.252;8.904;2023-06-24T00:22:39;100601.63;;;16.06;85.78
60489;BME280;46331;49.252;8.904;2023-06-24T00:23:24;100597.38;;;16.05;85.86
60489;BME280;46331;49.252;8.904;2023-06-24T00:24:05;100593.88;;;16.04;85.91
60489;BME280;46331;49.252;8.904;2023-06-24T00:24:45;100594.94;;;16.03;85.79
60489;BME280;46331;49.252;8.904;2023-06-24T00:25:27;100592.25;;;16.03;86.01
60489;BME280;46331;49.252;8.904;2023-06-24T00:26:07;100594.13;;;16.03;85.90
60489;BME280;46331;49.252;8.904;2023-06-24T00:26:48;100593.31;;;16.02;86.02
60489;BME280;46331;49.252;8.904;2023-06-24T00:27:28;100591.69;;;16.01;85.89
60489;BME280;46331;49.252;8.904;2023-06-24T00:28:09;100593.56;;;16.01;85.70
60489;BME280;46331;49.252;8.904;2023-06-24T00:28:50;100586.59;;;16.00;85.60
60489;BME280;46331;49.252;8.904;2023-06-24T00:29:31;100594.06;;;15.98;86.13
60489;BME280;46331;49.252;8.904;2023-06-24T00:30:12;100593.53;;;15.96;86.72
60489;BME280;46331;49.252;8.904;2023-06-24T00:30:53;100592.44;;;15.97;87.10
60489;BME280;46331;49.252;8.904;2023-06-24T00:31:33;100589.72;;;15.91;87.79
60489;BME280;46331;49.252;8.904;2023-06-24T00:32:14;100599.38;;;15.93;88.12
60489;BME280;46331;49.252;8.904;2023-06-24T00:32:54;100592.94;;;15.94;87.27
60489;BME280;46331;49.252;8.904;2023-06-24T00:33:35;100590.59;;;15.97;87.41
60489;BME280;46331;49.252;8.904;2023-06-24T00:34:16;100597.28;;;16.00;87.80
60489;BME280;46331;49.252;8.904;2023-06-24T00:34:59;100597.28;;;16.00;87.01
60489;BME280;46331;49.252;8.904;2023-06-24T00:35:40;100597.63;;;16.03;87.36
60489;BME280;46331;49.252;8.904;2023-06-24T00:36:21;100592.25;;;16.03;87.20
60489;BME280;46331;49.252;8.904;2023-06-24T00:37:03;100588.41;;;15.94;87.54
60489;BME280;46331;49.252;8.904;2023-06-24T00:37:44;100589.50;;;15.98;87.95
60489;BME280;46331;49.252;8.904;2023-06-24T00:38:25;100597.25;;;15.95;88.03
60489;BME280;46331;49.252;8.904;2023-06-24T00:39:06;100591.91;;;15.95;87.95
60489;BME280;46331;49.252;8.904;2023-06-24T00:39:46;100587.34;;;15.95;87.78
60489;BME280;46331;49.252;8.904;2023-06-24T00:40:27;100587.59;;;15.94;87.79
60489;BME280;46331;49.252;8.904;2023-06-24T00:41:08;100595.88;;;15.92;87.78
60489;BME280;46331;49.252;8.904;2023-06-24T00:41:49;100588.34;;;15.89;87.56
60489;BME280;46331;49.252;8.904;2023-06-24T00:42:29;100588.84;;;15.86;87.60
60489;BME280;46331;49.252;8.904;2023-06-24T00:43:10;100592.59;;;15.85;87.95
60489;BME280;46331;49.252;8.904;2023-06-24T00:43:50;100582.41;;;15.82;88.23
60489;BME280;46331;49.252;8.904;2023-06-24T00:44:31;100582.41;;;15.82;88.19
60489;BME280;46331;49.252;8.904;2023-06-24T00:45:14;100590.91;;;15.79;88.40
60489;BME280;46331;49.252;8.904;2023-06-24T00:45:57;100588.00;;;15.80;88.93
60489;BME280;46331;49.252;8.904;2023-06-24T00:46:38;100590.03;;;15.73;89.17
60489;BME280;46331;49.252;8.904;2023-06-24T00:47:20;100590.81;;;15.73;89.13
60489;BME280;46331;49.252;8.904;2023-06-24T00:48:01;100589.78;;;15.74;89.10
60489;BME280;46331;49.252;8.904;2023-06-24T00:48:43;100587.34;;;15.73;89.69
60489;BME280;46331;49.252;8.904;2023-06-24T00:49:24;100590.81;;;15.73;89.42
60489;BME280;46331;49.252;8.904;2023-06-24T00:50:04;100596.13;;;15.68;90.01
60489;BME280;46331;49.252;8.904;2023-06-24T00:50:45;100600.63;;;15.68;89.62
60489;BME280;46331;49.252;8.904;2023-06-24T00:51:26;100596.13;;;15.68;90.04
60489;BME280;46331;49.252;8.904;2023-06-24T00:52:09;100600.38;;;15.69;90.01
60489;BME280;46331;49.252;8.904;2023-06-24T00:52:52;100594.00;;;15.70;90.01
60489;BME280;46331;49.252;8.904;2023-06-24T00:53:32;100595.88;;;15.70;90.08
60489;BME280;46331;49.252;8.904;2023-06-24T00:54:13;100592.38;;;15.69;89.59
60489;BME280;46331;49.252;8.904;2023-06-24T00:54:53;100598.53;;;15.70;90.05
60489;BME280;46331;49.252;8.904;2023-06-24T00:55:36;100601.47;;;15.68;89.72
60489;BME280;46331;49.252;8.904;2023-06-24T00:56:17;100591.28;;;15.65;89.57
60489;BME280;46331;49.252;8.904;2023-06-24T00:56:59;100589.66;;;15.64;89.53
60489;BME280;46331;49.252;8.904;2023-06-24T00:57:44;100590.16;;;15.61;89.80
60489;BME280;46331;49.252;8.904;2023-06-24T00:58:25;100594.13;;;15.59;89.77
60489;BME280;46331;49.252;8.904;2023-06-24T00:59:07;100591.13;;;15.55;89.98
60489;BME280;46331;49.252;8.904;2023-06-24T00:59:48;100593.00;;;15.54;90.35
60489;BME280;46331;49.252;8.904;2023-06-24T01:00:33;100580.94;;;15.52;90.13
60489;BME280;46331;49.252;8.904;2023-06-24T01:01:16;100592.44;;;15.52;90.50
60489;BME280;46331;49.252;8.904;2023-06-24T01:01:57;100590.84;;;15.51;90.61
60489;BME280;46331;49.252;8.904;2023-06-24T01:02:38;100592.88;;;15.44;91.08
60489;BME280;46331;49.252;8.904;2023-06-24T01:03:18;100597.19;;;15.45;91.28
60489;BME280;46331;49.252;8.904;2023-06-24T01:04:00;100596.59;;;15.43;91.46
60489;BME280;46331;49.252;8.904;2023-06-24T01:04:40;100592.88;;;15.44;90.84
60489;BME280;46331;49.252;8.904;2023-06-24T01:05:21;100597.41;;;15.44;91.08
60489;BME280;46331;49.252;8.904;2023-06-24T01:06:03;100601.44;;;15.46;91.77
60489;BME280;46331;49.252;8.904;2023-06-24T01:06:44;100604.94;;;15.47;90.93
60489;BME280;46331;49.252;8.904;2023-06-24T01:07:25;100596.44;;;15.50;91.44
60489;BME280;46331;49.252;8.904;2023-06-24T01:08:06;100603.88;;;15.48;91.50
60489;BME280;46331;49.252;8.904;2023-06-24T01:08:47;100603.97;;;15.53;91.43
60489;BME280;46331;49.252;8.904;2023-06-24T01:09:31;100601.28;;;15.53;91.22
60489;BME280;46331;49.252;8.904;2023-06-24T01:10:11;100605.81;;;15.52;91.14
60489;BME280;46331;49.252;8.904;2023-06-24T01:10:53;100608.47;;;15.52;91.20
60489;BME280;46331;49.252;8.904;2023-06-24T01:11:33;100608.22;;;15.54;91.10
60489;BME280;46331;49.252;8.904;2023-06-24T01:12:14;100597.78;;;15.52;90.45
60489;BME280;46331;49.252;8.904;2023-06-24T01:12:54;100603.97;;;15.53;90.62
60489;BME280;46331;49.252;8.904;2023-06-24T01:13:35;100605.81;;;15.52;90.78
60489;BME280;46331;49.252;8.904;2023-06-24T01:14:16;100606.06;;;15.51;90.35
60489;BME280;46331;49.252;8.904;2023-06-24T01:15:01;100602.56;;;15.50;90.33
60489;BME280;46331;49.252;8.904;2023-06-24T01:15:42;100604.69;;;15.48;90.28
60489;BME280;46331;49.252;8.904;2023-06-24T01:17:16;100612.72;;;15.48;90.40
60489;BME280;46331;49.252;8.904;2023-06-24T01:18:13;100601.69;;;15.45;90.63
60489;BME280;46331;49.252;8.904;2023-06-24T01:19:06;100601.69;;;15.45;90.46
60489;BME280;46331;49.252;8.904;2023-06-24T01:20:54;100600.59;;;15.41;90.38
60489;BME280;46331;49.252;8.904;2023-06-24T01:21:42;100601.38;;;15.41;91.04
60489;BME280;46331;49.252;8.904;2023-06-24T01:22:48;100595.75;;;15.37;91.53
60489;BME280;46331;49.252;8.904;2023-06-24T01:24:08;100601.09;;;15.37;91.80
60489;BME280;46331;49.252;8.904;2023-06-24T01:25:06;100600.59;;;15.41;91.39
60489;BME280;46331;49.252;8.904;2023-06-24T01:26:19;100597.91;;;15.41;91.71
60489;BME280;46331;49.252;8.904;2023-06-24T01:31:40;100596.78;;;15.36;90.35
60489;BME280;46331;49.252;8.904;2023-06-24T01:32:33;100599.41;;;15.31;90.32
60489;BME280;46331;49.252;8.904;2023-06-24T01:33:22;100602.81;;;15.27;90.76
60489;BME280;46331;49.252;8.904;2023-06-24T01:34:55;100604.09;;;15.24;90.91
60489;BME280;46331;49.252;8.904;2023-06-24T01:35:38;100601.69;;;15.23;90.68
60489;BME280;46331;49.252;8.904;2023-06-24T01:36:22;100599.50;;;15.19;91.16
60489;BME280;46331;49.252;8.904;2023-06-24T01:37:11;100600.28;;;15.20;90.96
60489;BME280;46331;49.252;8.904;2023-06-24T01:37:53;100606.72;;;15.19;91.45
60489;BME280;46331;49.252;8.904;2023-06-24T01:38:43;100610.97;;;15.20;91.49
60489;BME280;46331;49.252;8.904;2023-06-24T01:39:26;100602.41;;;15.18;91.31
60489;BME280;46331;49.252;8.904;2023-06-24T01:41:03;100606.13;;;15.17;91.94
60489;BME280;46331;49.252;8.904;2023-06-24T01:41:51;100603.47;;;15.17;91.80
60489;BME280;46331;49.252;8.904;2023-06-24T01:42:36;100602.41;;;15.18;91.89
60489;BME280;46331;49.252;8.904;2023-06-24T01:43:18;100596.53;;;15.16;91.58
60489;BME280;46331;49.252;8.904;2023-06-24T01:44:01;100597.56;;;15.15;91.54
60489;BME280;46331;49.252;8.904;2023-06-24T01:44:45;100590.84;;;15.12;91.68
60489;BME280;46331;49.252;8.904;2023-06-24T01:45:41;100602.59;;;15.11;91.53
60489;BME280;46331;49.252;8.904;2023-06-24T01:46:24;100597.50;;;15.10;91.71
60489;BME280;46331;49.252;8.904;2023-06-24T01:47:06;100590.78;;;15.07;91.81
60489;BME280;46331;49.252;8.904;2023-06-24T01:47:49;100595.81;;;15.04;91.76
60489;BME280;46331;49.252;8.904;2023-06-24T01:48:35;100596.31;;;15.00;92.05
60489;BME280;46331;49.252;8.904;2023-06-24T01:49:18;100598.16;;;15.00;92.62
60489;BME280;46331;49.252;8.904;2023-06-24T01:50:01;100590.88;;;14.95;92.79
60489;BME280;46331;49.252;8.904;2023-06-24T01:51:00;100593.03;;;14.98;92.41
60489;BME280;46331;49.252;8.904;2023-06-24T01:51:41;100586.66;;;14.99;93.02
60489;BME280;46331;49.252;8.904;2023-06-24T01:52:25;100588.03;;;15.02;92.85
60489;BME280;46331;49.252;8.904;2023-06-24T01:53:08;100588.84;;;15.02;93.00
60489;BME280;46331;49.252;8.904;2023-06-24T01:53:57;100591.03;;;15.06;93.20
60489;BME280;46331;49.252;8.904;2023-06-24T01:54:41;100589.63;;;15.03;93.36
60489;BME280;46331;49.252;8.904;2023-06-24T01:55:23;100590.88;;;14.95;93.85
60489;BME280;46331;49.252;8.904;2023-06-24T01:56:06;100591.09;;;14.94;94.80
60489;BME280;46331;49.252;8.904;2023-06-24T01:56:48;100595.66;;;14.93;94.99
60489;BME280;46331;49.252;8.904;2023-06-24T01:57:31;100597.28;;;14.94;94.37
60489;BME280;46331;49.252;8.904;2023-06-24T01:58:15;100588.78;;;14.97;94.52
60489;BME280;46331;49.252;8.904;2023-06-24T01:59:00;100590.38;;;14.98;94.29
60489;BME280;46331;49.252;8.904;2023-06-24T01:59:44;100593.03;;;14.98;93.98
60489;BME280;46331;49.252;8.904;2023-06-24T02:00:26;100591.44;;;14.97;93.61
60489;BME280;46331;49.252;8.904;2023-06-24T02:01:07;100590.38;;;14.98;93.71
60489;BME280;46331;49.252;8.904;2023-06-24T02:01:49;100587.16;;;14.96;93.80
60489;BME280;46331;49.252;8.904;2023-06-24T02:02:32;100596.19;;;14.95;93.82
60489;BME280;46331;49.252;8.904;2023-06-24T02:03:14;100584.97;;;14.93;94.04
60489;BME280;46331;49.252;8.904;2023-06-24T02:03:55;100585.75;;;14.94;94.07
60489;BME280;46331;49.252;8.904;2023-06-24T02:04:37;100596.13;;;14.90;93.82
60489;BME280;46331;49.252;8.904;2023-06-24T02:05:19;100587.09;;;14.91;93.61
60489;BME280;46331;49.252;8.904;2023-06-24T02:06:02;100589.16;;;14.89;93.93
60489;BME280;46331;49.252;8.904;2023-06-24T02:06:44;100580.34;;;14.89;93.96
60489;BME280;46331;49.252;8.904;2023-06-24T02:07:25;100591.84;;;14.89;93.85
60489;BME280;46331;49.252;8.904;2023-06-24T02:08:08;100592.09;;;14.88;93.70
60489;BME280;46331;49.252;8.904;2023-06-24T02:08:50;100585.94;;;14.87;94.23
60489;BME280;46331;49.252;8.904;2023-06-24T02:09:33;100587.56;;;14.88;94.15
60489;BME280;46331;49.252;8.904;2023-06-24T02:10:14;100588.94;;;14.91;94.44
60489;BME280;46331;49.252;8.904;2023-06-24T02:10:56;100586.50;;;14.89;94.25
60489;BME280;46331;49.252;8.904;2023-06-24T02:11:39;100591.78;;;14.84;95.20
60489;BME280;46331;49.252;8.904;2023-06-24T02:12:20;100587.47;;;14.83;95.45
60489;BME280;46331;49.252;8.904;2023-06-24T02:13:03;100589.09;;;14.84;95.28
60489;BME280;46331;49.252;8.904;2023-06-24T02:13:45;100584.66;;;14.90;95.13
60489;BME280;46331;49.252;8.904;2023-06-24T02:14:30;100579.63;;;14.93;94.98
60489;BME280;46331;49.252;8.904;2023-06-24T02:15:12;100590.88;;;14.95;94.63
60489;BME280;46331;49.252;8.904;2023-06-24T02:15:54;100574.84;;;14.95;94.74
60489;BME280;46331;49.252;8.904;2023-06-24T02:16:35;100582.28;;;14.93;94.83
60489;BME280;46331;49.252;8.904;2023-06-24T02:17:17;100582.28;;;14.93;94.62
60489;BME280;46331;49.252;8.904;2023-06-24T02:17:58;100593.53;;;14.95;94.52
60489;BME280;46331;49.252;8.904;2023-06-24T02:18:42;100584.22;;;14.98;94.95
60489;BME280;46331;49.252;8.904;2023-06-24T02:19:27;100582.13;;;15.00;94.14
60489;BME280;46331;49.252;8.904;2023-06-24T02:20:12;100581.81;;;14.96;93.92
60489;BME280;46331;49.252;8.904;2023-06-24T02:20:56;100585.03;;;14.98;93.42
60489;BME280;46331;49.252;8.904;2023-06-24T02:21:39;100587.69;;;14.98;93.66
60489;BME280;46331;49.252;8.904;2023-06-24T02:22:22;100589.25;;;14.94;93.62
60489;BME280;46331;49.252;8.904;2023-06-24T02:23:06;100584.41;;;14.91;93.57
60489;BME280;46331;49.252;8.904;2023-06-24T02:23:49;100589.16;;;14.89;93.40
60489;BME280;46331;49.252;8.904;2023-06-24T02:24:30;100587.56;;;14.88;93.70
60489;BME280;46331;49.252;8.904;2023-06-24T02:25:10;100583.75;;;14.84;93.27
60489;BME280;46331;49.252;8.904;2023-06-24T02:25:51;100587.72;;;14.81;93.30
60489;BME280;46331;49.252;8.904;2023-06-24T02:26:33;100593.06;;;14.81;93.89
60489;BME280;46331;49.252;8.904;2023-06-24T02:27:16;100590.63;;;14.80;93.99
60489;BME280;46331;49.252;8.904;2023-06-24T02:27:57;100585.53;;;14.78;93.67
60489;BME280;46331;49.252;8.904;2023-06-24T02:28:38;100591.13;;;14.77;93.82
60489;BME280;46331;49.252;8.904;2023-06-24T02:29:20;100591.13;;;14.77;94.18
60489;BME280;46331;49.252;8.904;2023-06-24T02:30:04;100599.13;;;14.77;94.00
60489;BME280;46331;49.252;8.904;2023-06-24T02:30:46;100585.78;;;14.77;94.12
60489;BME280;46331;49.252;8.904;2023-06-24T02:31:28;100588.69;;;14.75;94.08
60489;BME280;46331;49.252;8.904;2023-06-24T02:32:10;100588.69;;;14.75;94.44
60489;BME280;46331;49.252;8.904;2023-06-24T02:32:51;100583.34;;;14.75;94.38
60489;BME280;46331;49.252;8.904;2023-06-24T02:33:32;100586.03;;;14.75;94.17
60489;BME280;46331;49.252;8.904;2023-06-24T02:34:12;100593.22;;;14.75;94.16
60489;BME280;46331;49.252;8.904;2023-06-24T02:34:53;100584.66;;;14.73;94.28
60489;BME280;46331;49.252;8.904;2023-06-24T02:35:34;100591.28;;;14.70;93.96
60489;BME280;46331;49.252;8.904;2023-06-24T02:36:15;100594.75;;;14.71;94.53
60489;BME280;46331;49.252;8.904;2023-06-24T02:36:55;100591.28;;;14.70;94.27
60489;BME280;46331;49.252;8.904;2023-06-24T02:37:36;100589.91;;;14.68;94.38
60489;BME280;46331;49.252;8.904;2023-06-24T02:38:16;100592.34;;;14.69;94.77
60489;BME280;46331;49.252;8.904;2023-06-24T02:38:57;100594.75;;;14.71;94.58
60489;BME280;46331;49.252;8.904;2023-06-24T02:39:38;100595.84;;;14.70;94.44
60489;BME280;46331;49.252;8.904;2023-06-24T02:40:25;100590.75;;;14.68;94.20
60489;BME280;46331;49.252;8.904;2023-06-24T02:41:06;100595.25;;;14.68;94.55
60489;BME280;46331;49.252;8.904;2023-06-24T02:41:46;100582.38;;;14.64;94.40
60489;BME280;46331;49.252;8.904;2023-06-24T02:42:29;100590.63;;;14.63;94.38
60489;BME280;46331;49.252;8.904;2023-06-24T02:43:10;100592.50;;;14.62;94.92
60489;BME280;46331;49.252;8.904;2023-06-24T02:43:51;100584.63;;;14.56;95.61
60489;BME280;46331;49.252;8.904;2023-06-24T02:44:32;100591.09;;;14.60;95.75
60489;BME280;46331;49.252;8.904;2023-06-24T02:45:13;100586.22;;;14.57;95.78
60489;BME280;46331;49.252;8.904;2023-06-24T02:45:54;100584.88;;;14.54;96.32
60489;BME280;46331;49.252;8.904;2023-06-24T02:46:36;100582.75;;;14.56;96.37
60489;BME280;46331;49.252;8.904;2023-06-24T02:47:19;100581.97;;;14.56;96.40
60489;BME280;46331;49.252;8.904;2023-06-24T02:48:00;100578.94;;;14.52;97.07
60489;BME280;46331;49.252;8.904;2023-06-24T02:48:42;100582.22;;;14.54;97.11
60489;BME280;46331;49.252;8.904;2023-06-24T02:49:25;100588.84;;;14.52;97.21
60489;BME280;46331;49.252;8.904;2023-06-24T02:50:07;100583.50;;;14.52;97.17
60489;BME280;46331;49.252;8.904;2023-06-24T02:50:50;100588.03;;;14.51;97.44
60489;BME280;46331;49.252;8.904;2023-06-24T02:51:31;100580.81;;;14.52;97.24
60489;BME280;46331;49.252;8.904;2023-06-24T02:52:13;100584.06;;;14.54;97.62
60489;BME280;46331;49.252;8.904;2023-06-24T02:52:54;100585.44;;;14.56;97.71
60489;BME280;46331;49.252;8.904;2023-06-24T02:53:40;100586.00;;;14.58;97.49
60489;BME280;46331;49.252;8.904;2023-06-24T02:54:24;100583.31;;;14.58;97.54
60489;BME280;46331;49.252;8.904;2023-06-24T02:55:27;100593.44;;;14.56;98.11
60489;BME280;46331;49.252;8.904;2023-06-24T02:56:14;100587.53;;;14.54;97.80
60489;BME280;46331;49.252;8.904;2023-06-24T02:56:58;100591.94;;;14.60;97.80
60489;BME280;46331;49.252;8.904;2023-06-24T02:57:49;100585.53;;;14.61;97.05
60489;BME280;46331;49.252;8.904;2023-06-24T02:58:56;100595.19;;;14.62;96.75
60489;BME280;46331;49.252;8.904;2023-06-24T02:59:39;100590.28;;;14.59;97.03
60489;BME280;46331;49.252;8.904;2023-06-24T03:00:24;100591.34;;;14.58;97.16
60489;BME280;46331;49.252;8.904;2023-06-24T03:01:25;100590.06;;;14.61;97.33
60489;BME280;46331;49.252;8.904;2023-06-24T03:02:08;100600.16;;;14.59;97.59
60489;BME280;46331;49.252;8.904;2023-06-24T03:02:49;100592.97;;;14.59;97.09
60489;BME280;46331;49.252;8.904;2023-06-24T03:03:31;100598.88;;;14.61;97.42
60489;BME280;46331;49.252;8.904;2023-06-24T03:04:12;100587.31;;;14.56;97.35
60489;BME280;46331;49.252;8.904;2023-06-24T03:04:53;100592.88;;;14.54;97.18
60489;BME280;46331;49.252;8.904;2023-06-24T03:05:35;100596.59;;;14.53;97.37
60489;BME280;46331;49.252;8.904;2023-06-24T03:06:16;100596.59;;;14.53;97.85
60489;BME280;46331;49.252;8.904;2023-06-24T03:06:59;100595.78;;;14.53;97.84
60489;BME280;46331;49.252;8.904;2023-06-24T03:07:41;100597.06;;;14.50;97.89
60489;BME280;46331;49.252;8.904;2023-06-24T03:08:23;100595.44;;;14.49;97.92
60489;BME280;46331;49.252;8.904;2023-06-24T03:09:05;100595.44;;;14.49;98.04
60489;BME280;46331;49.252;8.904;2023-06-24T03:09:49;100591.50;;;14.52;98.16
60489;BME280;46331;49.252;8.904;2023-06-24T03:10:31;100593.13;;;14.53;98.32
60489;BME280;46331;49.252;8.904;2023-06-24T03:11:12;100594.25;;;14.57;98.30
60489;BME280;46331;49.252;8.904;2023-06-24T03:11:54;100595.63;;;14.59;97.42
60489;BME280;46331;49.252;8.904;2023-06-24T03:12:44;100596.66;;;14.58;96.99
60489;BME280;46331;49.252;8.904;2023-06-24T03:13:26;100597.97;;;14.56;96.30
60489;BME280;46331;49.252;8.904;2023-06-24T03:14:13;100600.66;;;14.56;96.28
60489;BME280;46331;49.252;8.904;2023-06-24T03:14:56;100596.34;;;14.55;96.39
60489;BME280;46331;49.252;8.904;2023-06-24T03:15:37;100593.69;;;14.55;96.91
60489;BME280;46331;49.252;8.904;2023-06-24T03:16:17;100597.16;;;14.55;96.90
60489;BME280;46331;49.252;8.904;2023-06-24T03:17:05;100601.94;;;14.53;97.24
60489;BME280;46331;49.252;8.904;2023-06-24T03:17:46;100603.31;;;14.56;97.44
60489;BME280;46331;49.252;8.904;2023-06-24T03:18:27;100595.06;;;14.57;97.22
60489;BME280;46331;49.252;8.904;2023-06-24T03:19:07;100605.28;;;14.60;97.08
60489;BME280;46331;49.252;8.904;2023-06-24T03:19:49;100602.97;;;14.52;97.10
60489;BME280;46331;49.252;8.904;2023-06-24T03:20:29;100603.81;;;14.53;97.26
60489;BME280;46331;49.252;8.904;2023-06-24T03:21:18;100608.00;;;14.48;97.63
60489;BME280;46331;49.252;8.904;2023-06-24T03:21:58;100609.63;;;14.49;97.47
60489;BME280;46331;49.252;8.904;2023-06-24T03:22:39;100602.91;;;14.47;97.85
60489;BME280;46331;49.252;8.904;2023-06-24T03:23:24;100617.03;;;14.47;97.13
60489;BME280;46331;49.252;8.904;2023-06-24T03:24:05;100609.88;;;14.48;97.70
60489;BME280;46331;49.252;8.904;2023-06-24T03:24:46;100613.56;;;14.47;97.82
60489;BME280;46331;49.252;8.904;2023-06-24T03:25:26;100615.09;;;14.43;97.63
60489;BME280;46331;49.252;8.904;2023-06-24T03:26:07;100616.66;;;14.39;97.30
60489;BME280;46331;49.252;8.904;2023-06-24T03:26:47;100610.47;;;14.38;97.26
60489;BME280;46331;49.252;8.904;2023-06-24T03:27:29;100615.25;;;14.36;97.55
60489;BME280;46331;49.252;8.904;2023-06-24T03:28:11;100621.56;;;14.30;97.92
60489;BME280;46331;49.252;8.904;2023-06-24T03:28:58;100621.56;;;14.30;97.88
60489;BME280;46331;49.252;8.904;2023-06-24T03:29:39;100604.75;;;14.29;98.03
60489;BME280;46331;49.252;8.904;2023-06-24T03:30:25;100609.97;;;14.24;98.59
60489;BME280;46331;49.252;8.904;2023-06-24T03:31:06;100606.97;;;14.21;98.57
60489;BME280;46331;49.252;8.904;2023-06-24T03:31:46;100607.22;;;14.19;98.48
60489;BME280;46331;49.252;8.904;2023-06-24T03:32:32;100613.13;;;14.21;99.32
60489;BME280;46331;49.252;8.904;2023-06-24T03:33:15;100610.69;;;14.20;99.29
60489;BME280;46331;49.252;8.904;2023-06-24T03:33:57;100614.19;;;14.20;99.73
60489;BME280;46331;49.252;8.904;2023-06-24T03:34:39;100608.38;;;14.23;99.71
60489;BME280;46331;49.252;8.904;2023-06-24T03:35:22;100614.19;;;14.20;99.72
60489;BME280;46331;49.252;8.904;2023-06-24T03:36:03;100613.13;;;14.21;99.83
60489;BME280;46331;49.252;8.904;2023-06-24T03:36:47;100611.59;;;14.25;99.88
60489;BME280;46331;49.252;8.904;2023-06-24T03:37:29;100609.16;;;14.24;99.62
60489;BME280;46331;49.252;8.904;2023-06-24T03:38:10;100610.44;;;14.21;99.80
60489;BME280;46331;49.252;8.904;2023-06-24T03:38:51;100611.50;;;14.20;100.00
60489;BME280;46331;49.252;8.904;2023-06-24T03:39:32;100607.78;;;14.21;99.92
60489;BME280;46331;49.252;8.904;2023-06-24T03:40:13;100612.88;;;14.23;100.00
60489;BME280;46331;49.252;8.904;2023-06-24T03:40:54;100610.44;;;14.21;100.00
60489;BME280;46331;49.252;8.904;2023-06-24T03:41:35;100613.47;;;14.25;100.00
60489;BME280;46331;49.252;8.904;2023-06-24T03:42:15;100609.50;;;14.27;100.00
60489;BME280;46331;49.252;8.904;2023-06-24T03:42:57;100611.91;;;14.29;99.89
60489;BME280;46331;49.252;8.904;2023-06-24T03:43:39;100618.09;;;14.29;99.59
60489;BME280;46331;49.252;8.904;2023-06-24T03:44:19;100613.53;;;14.30;99.69
60489;BME280;46331;49.252;8.904;2023-06-24T03:45:04;100616.78;;;14.32;99.57
60489;BME280;46331;49.252;8.904;2023-06-24T03:45:45;100605.88;;;14.34;99.58
60489;BME280;46331;49.252;8.904;2023-06-24T03:46:26;100617.13;;;14.36;99.09
60489;BME280;46331;49.252;8.904;2023-06-24T03:47:06;100619.31;;;14.39;99.16
60489;BME280;46331;49.252;8.904;2023-06-24T03:47:47;100621.75;;;14.40;98.63
60489;BME280;46331;49.252;8.904;2023-06-24T03:48:27;100617.75;;;14.43;98.44
60489;BME280;46331;49.252;8.904;2023-06-24T03:49:08;100622.06;;;14.44;98.30
60489;BME280;46331;49.252;8.904;2023-06-24T03:49:49;100618.91;;;14.47;98.25
60489;BME280;46331;49.252;8.904;2023-06-24T03:50:29;100621.34;;;14.48;98.12
60489;BME280;46331;49.252;8.904;2023-06-24T03:51:10;100610.41;;;14.50;97.56
60489;BME280;46331;49.252;8.904;2023-06-24T03:51:52;100625.63;;;14.49;97.57
60489;BME280;46331;49.252;8.904;2023-06-24T03:52:32;100616.31;;;14.52;97.34